createdAt,value
2022-08-22T00:01:54.895Z,21.20
2022-08-22T00:02:42.671Z,23.80
2022-08-22T00:02:52.898Z,24.80
2022-08-22T00:02:54.874Z,22.50
2022-08-22T00:04:25.625Z,21.10
2022-08-22T00:07:31.036Z,21.10
2022-08-22T00:10:06.668Z,21.10
2022-08-22T00:13:08.886Z,21.10
2022-08-22T00:15:50.549Z,21.00
2022-08-22T00:18:37.054Z,21.00
2022-08-22T00:21:32.553Z,21.00
2022-08-22T00:24:41.053Z,21.00
2022-08-22T00:27:29.252Z,20.90
2022-08-22T00:30:16.422Z,21.00
2022-08-22T00:32:58.069Z,20.90
2022-08-22T00:35:44.861Z,21.00
2022-08-22T00:38:21.955Z,20.90
2022-08-22T00:41:24.524Z,20.80
2022-08-22T00:44:31.114Z,20.80
2022-08-22T00:47:16.553Z,20.80
2022-08-22T00:49:59.371Z,20.70
2022-08-22T00:52:35.641Z,20.70
2022-08-22T00:55:28.997Z,20.70
2022-08-22T00:58:15.045Z,20.60
2022-08-22T01:00:51.842Z,20.50
2022-08-22T01:03:38.796Z,20.50
2022-08-22T01:06:25.029Z,20.50
2022-08-22T01:09:11.496Z,20.50
2022-08-22T01:12:03.663Z,20.50
2022-08-22T01:14:54.165Z,20.40
2022-08-22T01:17:44.313Z,20.30
2022-08-22T01:20:42.946Z,20.30
2022-08-22T01:23:25.629Z,20.30
2022-08-22T01:25:59.157Z,20.30
2022-08-22T01:28:45.533Z,20.30
2022-08-22T01:31:26.049Z,20.20
2022-08-22T01:34:25.975Z,20.20
2022-08-22T01:37:24.728Z,20.10
2022-08-22T01:39:58.361Z,20.00
2022-08-22T01:42:34.913Z,19.90
2022-08-22T01:45:14.546Z,19.90
2022-08-22T01:47:59.767Z,19.90
2022-08-22T01:50:38.850Z,19.80
2022-08-22T01:53:36.804Z,19.70
2022-08-22T01:56:16.363Z,19.70
2022-08-22T01:58:58.820Z,19.70
2022-08-22T02:01:57.968Z,19.70
2022-08-22T02:04:41.161Z,19.70
2022-08-22T02:07:31.513Z,19.60
2022-08-22T02:10:10.134Z,19.50
2022-08-22T02:12:43.014Z,19.50
2022-08-22T02:15:19.521Z,19.50
2022-08-22T02:18:05.648Z,19.50
2022-08-22T02:20:48.530Z,19.40
2022-08-22T02:23:49.344Z,19.40
2022-08-22T02:26:44.047Z,19.40
2022-08-22T02:29:21.121Z,19.40
2022-08-22T02:31:53.870Z,19.30
2022-08-22T02:34:42.122Z,19.30
2022-08-22T02:37:30.141Z,19.30
2022-08-22T02:40:16.571Z,19.20
2022-08-22T02:42:58.786Z,19.10
2022-08-22T02:45:41.604Z,19.10
2022-08-22T02:48:44.495Z,19.00
2022-08-22T02:51:27.485Z,18.90
2022-08-22T02:54:06.564Z,18.80
2022-08-22T02:56:41.323Z,18.80
2022-08-22T02:59:12.137Z,18.80
2022-08-22T03:01:43.132Z,18.70
2022-08-22T03:04:25.992Z,18.60
2022-08-22T03:07:21.221Z,18.60
2022-08-22T03:10:03.422Z,18.60
2022-08-22T03:13:02.596Z,18.50
2022-08-22T03:15:39.438Z,18.50
2022-08-22T03:18:20.388Z,18.50
2022-08-22T03:20:47.985Z,18.40
2022-08-22T03:23:25.297Z,18.40
2022-08-22T03:26:07.700Z,18.30
2022-08-22T03:28:59.808Z,18.30
2022-08-22T03:31:32.566Z,18.20
2022-08-22T03:34:22.932Z,18.20
2022-08-22T03:37:18.044Z,18.20
2022-08-22T03:40:13.878Z,18.20
2022-08-22T03:42:56.012Z,18.10
2022-08-22T03:45:48.745Z,18.10
2022-08-22T03:48:22.410Z,18.00
2022-08-22T03:51:22.353Z,17.90
2022-08-22T03:54:08.897Z,17.90
2022-08-22T03:56:50.429Z,17.80
2022-08-22T03:59:42.757Z,17.80
2022-08-22T04:02:43.864Z,17.80
2022-08-22T04:05:27.910Z,17.90
2022-08-22T04:08:14.774Z,17.90
2022-08-22T04:11:25.176Z,17.90
2022-08-22T04:14:14.551Z,17.90
2022-08-22T04:16:58.125Z,17.80
2022-08-22T04:19:50.592Z,17.70
2022-08-22T04:23:02.145Z,17.50
2022-08-22T04:25:52.382Z,17.50
2022-08-22T04:28:34.018Z,17.40
2022-08-22T04:31:29.772Z,17.40
2022-08-22T04:34:23.550Z,17.20
2022-08-22T04:37:09.803Z,17.20
2022-08-22T04:39:55.589Z,17.20
2022-08-22T04:42:33.815Z,17.20
2022-08-22T04:45:28.005Z,17.20
2022-08-22T04:48:16.124Z,17.30
2022-08-22T04:51:12.467Z,17.30
2022-08-22T04:53:58.279Z,17.20
2022-08-22T04:57:01.519Z,17.10
2022-08-22T04:59:46.083Z,17.20
2022-08-22T05:02:50.298Z,17.20
2022-08-22T05:05:37.313Z,17.30
2022-08-22T05:08:20.790Z,17.30
2022-08-22T05:10:50.518Z,17.40
2022-08-22T05:13:27.439Z,17.30
2022-08-22T05:16:04.414Z,17.30
2022-08-22T05:18:38.672Z,17.40
2022-08-22T05:21:09.090Z,17.50
2022-08-22T05:23:48.292Z,17.50
2022-08-22T05:26:17.491Z,17.50
2022-08-22T05:28:53.563Z,17.50
2022-08-22T05:31:29.696Z,17.50
2022-08-22T05:34:07.155Z,17.60
2022-08-22T05:36:49.729Z,17.70
2022-08-22T05:39:27.783Z,17.70
2022-08-22T05:42:00.304Z,17.80
2022-08-22T05:44:34.908Z,17.90
2022-08-22T05:47:12.254Z,17.80
2022-08-22T05:49:56.411Z,17.90
2022-08-22T05:52:38.421Z,17.90
2022-08-22T05:55:27.813Z,17.80
2022-08-22T05:58:31.603Z,18.00
2022-08-22T06:01:23.797Z,18.20
2022-08-22T06:04:11.991Z,18.30
2022-08-22T06:07:00.837Z,18.10
2022-08-22T06:09:46.920Z,18.10
2022-08-22T06:12:30.983Z,18.20
2022-08-22T06:15:12.598Z,18.30
2022-08-22T06:17:45.477Z,18.30
2022-08-22T06:20:28.663Z,18.30
2022-08-22T06:23:00.784Z,18.50
2022-08-22T06:25:35.241Z,18.70
2022-08-22T06:28:18.722Z,18.70
2022-08-22T06:30:48.725Z,18.80
2022-08-22T06:33:21.562Z,19.00
2022-08-22T06:36:11.056Z,19.10
2022-08-22T06:39:12.357Z,19.30
2022-08-22T06:41:53.754Z,19.40
2022-08-22T06:44:27.717Z,19.60
2022-08-22T06:46:58.625Z,19.80
2022-08-22T06:49:28.182Z,20.00
2022-08-22T06:52:02.829Z,20.10
2022-08-22T06:54:35.046Z,20.20
2022-08-22T06:57:05.352Z,20.20
2022-08-22T06:59:37.295Z,20.20
2022-08-22T07:02:21.067Z,20.30
2022-08-22T07:04:54.147Z,20.30
2022-08-22T07:07:25.553Z,20.50
2022-08-22T07:10:18.165Z,20.60
2022-08-22T07:12:49.186Z,20.60
2022-08-22T07:15:40.380Z,20.70
2022-08-22T07:18:15.196Z,20.70
2022-08-22T07:20:49.432Z,20.80
2022-08-22T07:23:35.773Z,20.90
2022-08-22T07:26:22.321Z,21.20
2022-08-22T07:29:03.373Z,21.50
2022-08-22T07:31:47.759Z,21.80
2022-08-22T07:34:19.917Z,21.90
2022-08-22T07:36:59.781Z,22.00
2022-08-22T07:39:35.744Z,22.20
2022-08-22T07:42:07.084Z,22.20
2022-08-22T07:44:47.525Z,22.40
2022-08-22T07:47:26.326Z,22.60
2022-08-22T07:50:00.213Z,22.60
2022-08-22T07:52:34.593Z,22.80
2022-08-22T07:55:17.702Z,22.90
2022-08-22T07:57:52.825Z,23.20
2022-08-22T08:00:22.669Z,23.30
2022-08-22T08:02:56.385Z,23.40
2022-08-22T08:05:27.475Z,23.60
2022-08-22T08:07:56.315Z,23.70
2022-08-22T08:10:31.260Z,23.80
2022-08-22T08:13:06.328Z,23.90
2022-08-22T08:15:37.374Z,24.00
2022-08-22T08:18:21.906Z,24.20
2022-08-22T08:20:52.413Z,24.20
2022-08-22T08:23:23.450Z,24.40
2022-08-22T08:26:23.251Z,24.50
2022-08-22T08:28:54.344Z,24.70
2022-08-22T08:31:31.388Z,24.60
2022-08-22T08:34:21.968Z,24.70
2022-08-22T08:37:05.733Z,24.70
2022-08-22T08:39:49.280Z,24.80
2022-08-22T08:43:03.303Z,24.90
2022-08-22T08:46:01.213Z,25.10
2022-08-22T08:48:32.701Z,25.10
2022-08-22T08:51:25.619Z,25.00
2022-08-22T08:54:15.660Z,25.10
2022-08-22T08:57:04.642Z,25.40
2022-08-22T08:59:54.550Z,25.60
2022-08-22T09:02:43.886Z,25.60
2022-08-22T09:05:25.942Z,25.50
2022-08-22T09:08:12.189Z,25.60
2022-08-22T09:10:58.734Z,25.60
2022-08-22T09:13:44.493Z,25.50
2022-08-22T09:16:18.701Z,25.50
2022-08-22T09:19:04.842Z,25.70
2022-08-22T09:21:41.733Z,25.90
2022-08-22T09:24:52.333Z,26.10
2022-08-22T09:27:37.750Z,26.20
2022-08-22T09:30:11.590Z,26.30
2022-08-22T09:32:57.342Z,26.50
2022-08-22T09:35:38.030Z,26.50
2022-08-22T09:38:28.517Z,26.40
2022-08-22T09:41:19.521Z,26.50
2022-08-22T09:44:04.960Z,26.70
2022-08-22T09:46:41.352Z,26.80
2022-08-22T09:49:23.415Z,26.80
2022-08-22T09:52:14.505Z,26.80
2022-08-22T09:54:56.482Z,26.80
2022-08-22T09:57:40.786Z,27.00
2022-08-22T10:00:13.889Z,27.20
2022-08-22T10:03:02.558Z,27.20
2022-08-22T10:05:52.286Z,27.30
2022-08-22T10:08:26.345Z,27.40
2022-08-22T10:11:00.090Z,27.40
2022-08-22T10:14:00.558Z,27.40
2022-08-22T10:16:57.177Z,27.50
2022-08-22T10:19:45.431Z,27.70
2022-08-22T10:22:37.137Z,27.80
2022-08-22T10:25:25.536Z,27.70
2022-08-22T10:28:13.643Z,27.90
2022-08-22T10:31:02.092Z,28.30
2022-08-22T10:33:32.744Z,28.50
2022-08-22T10:36:23.656Z,28.80
2022-08-22T10:38:57.889Z,28.80
2022-08-22T10:42:02.284Z,28.80
2022-08-22T10:44:51.540Z,28.80
2022-08-22T10:47:27.310Z,29.10
2022-08-22T10:50:03.448Z,29.40
2022-08-22T10:53:13.981Z,29.50
2022-08-22T10:55:45.791Z,29.60
2022-08-22T10:58:19.256Z,29.90
2022-08-22T11:01:00.369Z,30.40
2022-08-22T11:03:46.915Z,30.70
2022-08-22T11:06:19.743Z,31.10
2022-08-22T11:09:06.129Z,31.40
2022-08-22T11:11:48.392Z,31.90
2022-08-22T11:14:23.159Z,32.70
2022-08-22T11:16:58.855Z,34.20
2022-08-22T11:19:56.202Z,36.40
2022-08-22T11:22:40.832Z,37.30
2022-08-22T11:25:53.803Z,37.10
2022-08-22T11:28:28.833Z,37.50
2022-08-22T11:31:03.547Z,38.40
2022-08-22T11:33:46.348Z,40.10
2022-08-22T11:36:41.609Z,40.70
2022-08-22T11:39:31.507Z,41.20
2022-08-22T11:42:23.641Z,42.30
2022-08-22T11:45:02.302Z,41.70
2022-08-22T11:47:45.053Z,40.00
2022-08-22T11:50:24.747Z,40.00
2022-08-22T11:53:07.624Z,40.50
2022-08-22T11:55:48.845Z,41.00
2022-08-22T11:58:17.094Z,40.30
2022-08-22T12:00:51.235Z,39.40
2022-08-22T12:03:45.806Z,39.80
2022-08-22T12:06:57.015Z,41.20
2022-08-22T12:09:33.800Z,41.70
2022-08-22T12:12:10.183Z,40.20
2022-08-22T12:15:18.558Z,40.40
2022-08-22T12:18:29.423Z,41.80
2022-08-22T12:21:36.756Z,42.60
2022-08-22T12:24:38.579Z,43.30
2022-08-22T12:27:54.098Z,43.30
2022-08-22T12:30:25.719Z,43.80
2022-08-22T12:33:14.844Z,41.90
2022-08-22T12:36:18.161Z,39.60
2022-08-22T12:38:59.334Z,38.80
2022-08-22T12:42:06.690Z,40.70
2022-08-22T12:44:45.444Z,42.60
2022-08-22T12:48:01.450Z,43.30
2022-08-22T12:50:33.008Z,45.10
2022-08-22T12:53:20.058Z,46.50
2022-08-22T12:56:33.292Z,47.20
2022-08-22T12:59:27.308Z,47.20
2022-08-22T13:02:15.184Z,46.10
2022-08-22T13:04:51.207Z,45.60
2022-08-22T13:07:18.797Z,46.20
2022-08-22T13:09:57.638Z,44.50
2022-08-22T13:12:29.605Z,43.60
2022-08-22T13:15:26.967Z,44.60
2022-08-22T13:18:08.685Z,45.40
2022-08-22T13:20:49.263Z,46.40
2022-08-22T13:23:23.143Z,47.10
2022-08-22T13:26:32.872Z,46.70
2022-08-22T13:32:03.604Z,45.60
2022-08-22T13:34:38.431Z,46.30
2022-08-22T13:37:15.206Z,46.90
2022-08-22T13:39:49.136Z,46.90
2022-08-22T13:42:30.001Z,45.90
2022-08-22T13:45:05.412Z,45.90
2022-08-22T13:47:39.648Z,44.90
2022-08-22T13:50:19.082Z,43.80
2022-08-22T13:53:14.218Z,45.30
2022-08-22T13:55:52.992Z,46.80
2022-08-22T13:58:48.931Z,46.20
2022-08-22T14:01:50.631Z,46.10
2022-08-22T14:04:35.850Z,46.20
2022-08-22T14:07:04.473Z,46.10
2022-08-22T14:09:54.544Z,46.50
2022-08-22T14:12:57.165Z,46.00
2022-08-22T14:15:46.051Z,46.50
2022-08-22T14:18:18.456Z,46.30
2022-08-22T14:20:48.907Z,45.00
2022-08-22T14:23:30.881Z,45.50
2022-08-22T14:26:02.818Z,47.00
2022-08-22T14:28:37.466Z,47.80
2022-08-22T14:31:13.515Z,47.70
2022-08-22T14:34:10.577Z,48.10
2022-08-22T14:36:48.331Z,48.10
2022-08-22T14:39:43.090Z,48.50
2022-08-22T14:42:26.786Z,49.20
2022-08-22T14:45:06.701Z,49.00
2022-08-22T14:48:30.676Z,47.60
2022-08-22T14:50:43.146Z,47.60
2022-08-22T14:53:22.191Z,47.40
2022-08-22T14:56:00.339Z,47.80
2022-08-22T15:02:09.631Z,48.80
2022-08-22T15:04:48.137Z,49.30
2022-08-22T15:07:37.585Z,48.70
2022-08-22T15:10:35.866Z,48.20
2022-08-22T15:13:09.956Z,48.20
2022-08-22T15:15:55.016Z,47.50
2022-08-22T15:18:23.584Z,47.70
2022-08-22T15:21:03.208Z,47.20
2022-08-22T15:28:27.474Z,44.30
2022-08-22T15:36:15.880Z,41.00
2022-08-22T15:39:30.457Z,40.80
2022-08-22T15:42:02.795Z,41.50
2022-08-22T15:44:44.194Z,42.60
2022-08-22T15:47:40.576Z,44.70
2022-08-22T15:50:31.775Z,44.90
2022-08-22T15:53:08.875Z,45.30
2022-08-22T15:55:37.923Z,46.10
2022-08-22T15:58:21.832Z,46.50
2022-08-22T16:01:20.079Z,45.60
2022-08-22T16:04:06.394Z,44.70
2022-08-22T16:06:44.821Z,44.10
2022-08-22T16:09:38.462Z,43.70
2022-08-22T16:12:31.137Z,43.20
2022-08-22T16:15:01.863Z,44.10
2022-08-22T16:17:29.500Z,44.00
2022-08-22T16:20:09.998Z,44.50
2022-08-22T16:22:59.188Z,44.50
2022-08-22T16:25:45.730Z,44.80
2022-08-22T16:29:05.436Z,44.50
2022-08-22T16:31:55.699Z,44.40
2022-08-22T16:34:42.558Z,44.90
2022-08-22T16:37:17.988Z,45.00
2022-08-22T16:39:51.426Z,44.30
2022-08-22T16:42:21.919Z,42.40
2022-08-22T16:45:02.150Z,40.30
2022-08-22T16:47:42.983Z,38.20
2022-08-22T16:50:23.351Z,36.80
2022-08-22T16:53:08.647Z,35.80
2022-08-22T16:55:44.145Z,35.10
2022-08-22T16:58:57.939Z,34.90
2022-08-22T17:01:47.969Z,35.80
2022-08-22T17:04:32.733Z,36.90
2022-08-22T17:07:38.648Z,36.80
2022-08-22T17:10:38.734Z,36.60
2022-08-22T17:13:27.592Z,36.30
2022-08-22T17:16:16.452Z,35.40
2022-08-22T17:19:10.581Z,34.50
2022-08-22T17:22:01.122Z,33.50
2022-08-22T17:24:46.102Z,33.10
2022-08-22T17:27:32.781Z,32.70
2022-08-22T17:30:09.452Z,32.40
2022-08-22T17:33:00.033Z,32.20
2022-08-22T17:36:26.223Z,31.90
2022-08-22T17:39:26.427Z,31.70
2022-08-22T17:42:09.374Z,31.40
2022-08-22T17:44:54.972Z,31.20
2022-08-22T17:47:40.786Z,31.10
2022-08-22T17:50:27.042Z,30.90
2022-08-22T17:53:03.204Z,30.70
2022-08-22T17:55:37.820Z,30.50
2022-08-22T17:58:35.707Z,30.30
2022-08-22T18:01:24.235Z,30.20
2022-08-22T18:03:59.369Z,30.10
2022-08-22T18:06:38.126Z,30.00
2022-08-22T18:09:19.111Z,29.90
2022-08-22T18:11:58.293Z,29.70
2022-08-22T18:14:38.248Z,29.50
2022-08-22T18:17:49.543Z,29.40
2022-08-22T18:20:23.068Z,29.20
2022-08-22T18:22:57.155Z,29.10
2022-08-22T18:25:41.494Z,29.00
2022-08-22T18:28:25.071Z,28.90
2022-08-22T18:31:02.576Z,28.70
2022-08-22T18:34:21.147Z,28.50
2022-08-22T18:37:01.059Z,28.30
2022-08-22T18:40:02.188Z,28.20
2022-08-22T18:43:43.422Z,28.10
2022-08-22T18:54:41.379Z,27.90
2022-08-22T19:02:30.171Z,27.50
2022-08-22T19:18:01.128Z,26.90
2022-08-22T19:21:41.627Z,26.70
2022-08-22T19:25:26.004Z,26.50
2022-08-22T19:35:54.836Z,26.30
2022-08-22T19:42:58.819Z,26.20
2022-08-22T19:45:55.346Z,26.20
2022-08-22T19:48:53.883Z,26.20
2022-08-22T19:51:31.074Z,26.00
2022-08-22T19:54:26.390Z,26.00
2022-08-22T19:57:40.123Z,25.90
2022-08-22T20:00:21.479Z,25.90
2022-08-22T20:06:50.316Z,25.60
2022-08-22T20:09:54.185Z,25.60
2022-08-22T20:17:37.018Z,25.60
2022-08-22T20:21:26.887Z,25.60
2022-08-22T20:24:21.790Z,25.70
2022-08-22T20:27:49.426Z,25.60
2022-08-22T20:30:31.155Z,25.50
2022-08-22T20:33:15.260Z,25.50
2022-08-22T20:35:56.919Z,25.40
2022-08-22T20:38:56.000Z,25.30
2022-08-22T20:41:39.650Z,25.30
2022-08-22T20:44:47.236Z,25.20
2022-08-22T20:47:27.048Z,25.20
2022-08-22T20:50:16.483Z,25.00
2022-08-22T20:55:04.961Z,24.90
2022-08-22T20:56:55.791Z,24.80
2022-08-22T20:59:44.429Z,24.80
2022-08-22T21:02:27.639Z,24.80
2022-08-22T21:05:09.117Z,24.70
2022-08-22T21:07:43.211Z,24.60
2022-08-22T21:10:56.556Z,24.50
2022-08-22T21:13:34.659Z,24.50
2022-08-22T21:16:26.913Z,24.40
2022-08-22T21:19:15.175Z,24.40
2022-08-22T21:21:52.046Z,24.30
2022-08-22T21:24:26.251Z,24.20
2022-08-22T21:27:01.972Z,24.20
2022-08-22T21:29:44.876Z,24.10
2022-08-22T21:32:37.161Z,24.10
2022-08-22T21:35:20.017Z,23.90
2022-08-22T21:38:01.272Z,23.90
2022-08-22T21:40:37.228Z,23.80
2022-08-22T21:43:27.131Z,23.80
2022-08-22T21:45:56.968Z,23.70
2022-08-22T21:48:34.636Z,23.60
2022-08-22T21:51:30.580Z,23.50
2022-08-22T21:54:40.498Z,23.50
2022-08-22T21:57:11.616Z,23.50
2022-08-22T21:59:59.750Z,23.50
2022-08-22T22:02:43.758Z,23.40
2022-08-22T22:05:17.018Z,23.40
2022-08-22T22:07:50.608Z,23.40
2022-08-22T22:10:28.403Z,23.30
2022-08-22T22:13:02.836Z,23.40
2022-08-22T22:15:41.518Z,23.30
2022-08-22T22:18:10.112Z,23.30
2022-08-22T22:20:39.017Z,23.20
2022-08-22T22:23:08.096Z,23.20
2022-08-22T22:25:42.239Z,23.10
2022-08-22T22:28:22.690Z,23.10
2022-08-22T22:30:55.275Z,23.10
2022-08-22T22:36:28.933Z,23.00
2022-08-22T22:39:07.023Z,22.90
2022-08-22T22:41:40.293Z,22.90
2022-08-22T22:44:29.292Z,22.70
2022-08-22T22:46:58.846Z,22.70
2022-08-22T22:49:27.050Z,22.70
2022-08-22T22:51:57.686Z,22.60
2022-08-22T22:54:29.720Z,22.60
2022-08-22T22:57:05.533Z,22.50
2022-08-22T22:59:43.290Z,22.60
2022-08-22T23:02:16.448Z,22.50
2022-08-22T23:04:50.350Z,22.50
2022-08-22T23:07:29.716Z,22.40
2022-08-22T23:10:05.518Z,22.30
2022-08-22T23:12:44.130Z,22.30
2022-08-22T23:15:27.764Z,22.30
2022-08-22T23:18:02.611Z,22.30
2022-08-22T23:20:36.616Z,22.30
2022-08-22T23:23:10.198Z,22.20
2022-08-22T23:25:46.275Z,22.20
2022-08-22T23:28:21.494Z,22.20
2022-08-22T23:30:52.576Z,22.20
2022-08-22T23:33:24.975Z,22.10
2022-08-22T23:36:00.280Z,22.00
2022-08-22T23:38:47.714Z,21.90
2022-08-22T23:41:21.725Z,21.90
2022-08-22T23:43:53.131Z,21.90
2022-08-22T23:46:28.553Z,21.90
2022-08-22T23:49:10.332Z,21.80
2022-08-22T23:51:44.437Z,21.70
2022-08-22T23:54:13.767Z,21.70
2022-08-22T23:56:59.348Z,21.70
2022-08-22T23:59:34.891Z,21.50
